Lawrence, Michigan
Current Conditions -  °F | °C
As of 12:15 PM on Friday 19 Dec 2014 (Local Time) from KLWA Reporting Station
Clear Clear  
Wind Chill: 25°   Ceiling: Unl
Heat Index: 32°   Visibility: 10mi
Dew Point: 20°   Wind: 8mph
Humidity: 61%   Direction: 330°NNW
Pressure: 30.27"   Gusts: NA
Location:  42.22°N, 86.05°W
Report Text: KLWA 191715Z AUTO 33007KT 10SM CLR 00/M07 A3027 RMK AO2 T00021066
Loading
Personal Weather Stations






























Interactive Weather Map New forecast layout! Learn more

10-Day Weather Forecast

Advertisements
Track Severe Weather on mobile